Terminal Aerodrome Forecast
Issued by NWS

Home | Current Version | Previous Version | Text Only | Print | Product List | Glossary On
Versions: 1 2 3 4 5 6 7 8 9 10 11 12 13 14 15 16 17 18 19 20 21 22 23
000
FTUS44 KHGX 200908 AAC
TAFCXO
TAF AMD
KCXO 200908Z 2009/2106 19004KT 5SM BR OVC005
      TEMPO 2011/2013 1/2SM FG OVC002
     FM201500 21007KT 4SM BR BKN007 OVC012
     FM201800 22006KT P6SM SCT100
     FM210200 11005KT 6SM BR SCT015=

USA.gov is the U.S. government's official web portal to all federal, state and local government web resources and services.